createdAt,value
2019-04-05T00:01:18.994Z,99567.16
2019-04-05T00:04:24.665Z,99564.69
2019-04-05T00:07:30.427Z,99567.84
2019-04-05T00:10:36.194Z,99569.87
2019-04-05T00:13:41.851Z,99562.81
2019-04-05T00:16:47.714Z,99566.11
2019-04-05T00:19:53.373Z,99569.39
2019-04-05T00:22:59.080Z,99560.81
2019-04-05T00:26:04.899Z,99563.32
2019-04-05T00:29:10.687Z,99561.02
2019-04-05T00:32:16.361Z,99554.13
2019-04-05T00:35:22.078Z,99553.57
2019-04-05T00:38:27.758Z,99556.11
2019-04-05T00:41:33.444Z,99559.74
2019-04-05T00:44:39.202Z,99556.80
2019-04-05T00:47:45.021Z,99556.91
2019-04-05T00:50:50.802Z,99546.59
2019-04-05T00:53:56.598Z,99546.33
2019-04-05T00:57:02.381Z,99543.78
2019-04-05T01:00:09.880Z,99555.50
2019-04-05T01:03:15.584Z,99552.77
2019-04-05T01:06:21.419Z,99551.59
2019-04-05T01:09:27.261Z,99555.59
2019-04-05T01:12:34.666Z,99562.34
2019-04-05T01:15:41.359Z,99563.95
2019-04-05T01:18:47.253Z,99567.99
2019-04-05T01:21:56.239Z,99564.54
2019-04-05T01:25:02.333Z,99565.19
2019-04-05T01:28:08.121Z,99556.40
2019-04-05T01:31:13.822Z,99551.17
2019-04-05T01:34:19.736Z,99552.88
2019-04-05T01:37:26.347Z,99550.59
2019-04-05T01:40:34.392Z,99554.72
2019-04-05T01:43:40.137Z,99557.86
2019-04-05T01:46:46.209Z,99554.28
2019-04-05T01:49:52.031Z,99552.47
2019-04-05T01:52:57.826Z,99550.47
2019-04-05T01:56:03.637Z,99554.25
2019-04-05T01:59:09.320Z,99553.69
2019-04-05T02:02:15.199Z,99546.36
2019-04-05T02:05:21.057Z,99556.44
2019-04-05T02:08:27.142Z,99552.54
2019-04-05T02:11:33.050Z,99550.03
2019-04-05T02:14:38.856Z,99545.33
2019-04-05T02:17:44.512Z,99545.13
2019-04-05T02:20:50.286Z,99547.25
2019-04-05T02:23:55.942Z,99548.66
2019-04-05T02:27:01.693Z,99559.09
2019-04-05T02:30:07.620Z,99559.59
2019-04-05T02:33:13.521Z,99555.42
2019-04-05T02:36:19.339Z,99566.28
2019-04-05T02:39:25.109Z,99567.56
2019-04-05T02:42:31.099Z,99572.69
2019-04-05T02:45:39.945Z,99568.35
2019-04-05T02:48:49.047Z,99566.34
2019-04-05T02:51:56.476Z,99560.15
2019-04-05T02:55:02.447Z,99558.42
2019-04-05T02:58:09.164Z,99560.91
2019-04-05T03:01:15.101Z,99555.34
2019-04-05T03:04:20.953Z,99567.44
2019-04-05T03:07:28.582Z,99561.91
2019-04-05T03:11:11.669Z,99561.97
2019-04-05T03:14:18.274Z,99569.00
2019-04-05T03:17:24.744Z,99565.34
2019-04-05T03:20:30.749Z,99564.52
2019-04-05T03:23:39.535Z,99566.45
2019-04-05T03:26:50.173Z,99563.34
2019-04-05T03:29:56.690Z,99565.77
2019-04-05T03:33:02.757Z,99568.70
2019-04-05T03:36:08.980Z,99573.09
2019-04-05T03:39:14.758Z,99571.08
2019-04-05T03:42:21.213Z,99574.05
2019-04-05T03:45:27.973Z,99565.23
2019-04-05T03:48:34.612Z,99568.30
2019-04-05T03:51:40.598Z,99569.31
2019-04-05T03:54:46.399Z,99572.20
2019-04-05T03:57:52.272Z,99571.20
2019-04-05T04:00:58.535Z,99565.06
2019-04-05T04:04:04.377Z,99572.22
2019-04-05T04:07:10.373Z,99569.84
2019-04-05T04:10:18.880Z,99576.98
2019-04-05T04:13:24.851Z,99588.20
2019-04-05T04:16:30.740Z,99586.31
2019-04-05T04:19:37.102Z,99587.25
2019-04-05T04:22:43.097Z,99587.45
2019-04-05T04:25:49.891Z,99578.05
2019-04-05T04:28:55.959Z,99587.70
2019-04-05T04:32:01.835Z,99586.74
2019-04-05T04:35:08.172Z,99584.13
2019-04-05T04:38:13.994Z,99586.09
2019-04-05T04:41:19.775Z,99593.06
2019-04-05T04:44:26.305Z,99586.78
2019-04-05T04:47:32.756Z,99594.89
2019-04-05T04:50:38.668Z,99604.24
2019-04-05T04:53:45.273Z,99608.66
2019-04-05T04:56:51.470Z,99608.28
2019-04-05T04:59:57.459Z,99609.79
2019-04-05T05:03:03.623Z,99607.33
2019-04-05T05:06:09.841Z,99605.37
2019-04-05T05:09:15.800Z,99610.70
2019-04-05T05:12:21.620Z,99611.23
2019-04-05T05:15:27.571Z,99608.17
2019-04-05T05:18:33.473Z,99607.52
2019-04-05T05:21:39.574Z,99606.36
2019-04-05T05:24:45.352Z,99606.36
2019-04-05T05:27:51.407Z,99611.32
2019-04-05T05:30:57.287Z,99614.08
2019-04-05T05:34:03.123Z,99609.31
2019-04-05T05:37:09.939Z,99603.30
2019-04-05T05:40:15.849Z,99604.78
2019-04-05T05:43:23.843Z,99606.27
2019-04-05T05:46:29.197Z,99602.78
2019-04-05T05:49:34.867Z,99605.56
2019-04-05T05:52:40.851Z,99606.72
2019-04-05T05:55:46.579Z,99603.59
2019-04-05T05:58:55.329Z,99601.23
2019-04-05T06:01:59.675Z,99597.58
2019-04-05T06:05:05.888Z,99605.34
2019-04-05T06:08:11.567Z,99606.31
2019-04-05T06:11:17.237Z,99609.30
2019-04-05T06:14:22.951Z,99608.29
2019-04-05T06:17:28.809Z,99600.28
2019-04-05T06:20:34.448Z,99595.94
2019-04-05T06:23:40.137Z,99595.94
2019-04-05T06:26:45.819Z,99593.61
2019-04-05T06:29:51.684Z,99602.47
2019-04-05T06:32:57.439Z,99593.97
2019-04-05T06:36:03.196Z,99596.13
2019-04-05T06:39:09.406Z,99587.56
2019-04-05T06:42:15.298Z,99589.59
2019-04-05T06:45:21.043Z,99584.31
2019-04-05T06:48:29.291Z,99585.87
2019-04-05T06:51:34.426Z,99592.20
2019-04-05T06:54:40.154Z,99595.30
2019-04-05T06:57:45.856Z,99594.80
2019-04-05T07:00:57.266Z,99586.91
2019-04-05T07:03:58.991Z,99591.21
2019-04-05T07:07:05.791Z,99590.36
2019-04-05T07:10:11.687Z,99588.44
2019-04-05T07:13:17.356Z,99588.26
2019-04-05T07:16:23.125Z,99589.78
2019-04-05T07:19:29.016Z,99589.70
2019-04-05T07:22:39.067Z,99591.06
2019-04-05T07:25:42.245Z,99592.17
2019-04-05T07:28:48.052Z,99588.44
2019-04-05T07:31:53.753Z,99600.42
2019-04-05T07:35:00.455Z,99596.95
2019-04-05T07:38:06.144Z,99590.23
2019-04-05T07:41:11.891Z,99598.62
2019-04-05T07:44:17.575Z,99593.69
2019-04-05T07:47:23.279Z,99593.16
2019-04-05T07:50:28.952Z,99594.59
2019-04-05T07:53:34.640Z,99603.86
2019-04-05T07:56:40.343Z,99601.34
2019-04-05T07:59:46.026Z,99596.80
2019-04-05T08:02:51.864Z,99605.88
2019-04-05T08:05:57.560Z,99591.11
2019-04-05T08:09:14.752Z,99588.46
2019-04-05T08:12:21.038Z,99590.31
2019-04-05T08:15:27.096Z,99583.80
2019-04-05T08:18:32.781Z,99583.83
2019-04-05T08:21:38.724Z,99585.31
2019-04-05T08:24:44.465Z,99581.39
2019-04-05T08:27:50.380Z,99575.98
2019-04-05T08:30:56.067Z,99577.27
2019-04-05T08:34:01.796Z,99577.40
2019-04-05T08:37:07.724Z,99573.48
2019-04-05T08:40:13.688Z,99571.29
2019-04-05T08:43:19.451Z,99572.66
2019-04-05T08:46:25.148Z,99563.97
2019-04-05T08:49:30.843Z,99550.87
2019-04-05T08:52:36.506Z,99548.20
2019-04-05T08:55:42.233Z,99548.65
2019-04-05T08:58:47.925Z,99545.97
2019-04-05T09:01:53.647Z,99542.42
2019-04-05T09:04:59.330Z,99536.94
2019-04-05T09:08:05.170Z,99526.95
2019-04-05T09:11:10.931Z,99529.05
2019-04-05T09:14:16.739Z,99523.13
2019-04-05T09:17:22.461Z,99517.22
2019-04-05T09:20:28.157Z,99507.38
2019-04-05T09:23:33.975Z,99507.97
2019-04-05T09:26:39.682Z,99501.15
2019-04-05T09:29:45.422Z,99504.19
2019-04-05T09:32:51.101Z,99494.39
2019-04-05T09:35:56.813Z,99488.42
2019-04-05T09:39:02.693Z,99485.83
2019-04-05T09:42:08.480Z,99486.31
2019-04-05T09:45:14.327Z,99486.03
2019-04-05T09:48:20.063Z,99483.77
2019-04-05T09:51:25.803Z,99479.80
2019-04-05T09:54:31.658Z,99475.53
2019-04-05T09:57:37.373Z,99465.58
2019-04-05T10:00:43.142Z,99465.18
2019-04-05T10:03:49.003Z,99462.91
2019-04-05T10:06:54.813Z,99450.81
2019-04-05T10:10:00.528Z,99448.59
2019-04-05T10:13:06.243Z,99437.56
2019-04-05T10:16:12.104Z,99448.42
2019-04-05T10:19:17.779Z,99434.55
2019-04-05T10:22:23.486Z,99440.61
2019-04-05T10:25:29.265Z,99428.91
2019-04-05T10:28:34.996Z,99422.98
2019-04-05T10:31:40.816Z,99420.27
2019-04-05T10:34:47.362Z,99415.08
2019-04-05T10:37:53.105Z,99409.69
2019-04-05T10:40:58.915Z,99408.23
2019-04-05T10:44:06.587Z,99415.34
2019-04-05T10:47:12.374Z,99405.58
2019-04-05T10:50:18.780Z,99404.46
2019-04-05T10:53:24.464Z,99404.50
2019-04-05T10:56:30.162Z,99386.89
2019-04-05T10:59:38.415Z,99384.17
2019-04-05T11:02:43.395Z,99386.05
2019-04-05T11:05:49.553Z,99384.98
2019-04-05T11:08:55.489Z,99376.41
2019-04-05T11:12:01.396Z,99382.78
2019-04-05T11:15:08.087Z,99379.45
2019-04-05T11:18:13.889Z,99372.12
2019-04-05T11:21:19.668Z,99373.22
2019-04-05T11:24:25.414Z,99378.26
2019-04-05T11:27:31.118Z,99375.80
2019-04-05T11:30:46.137Z,99370.83
2019-04-05T11:33:51.885Z,99365.46
2019-04-05T11:36:58.370Z,99360.14
2019-04-05T11:40:05.159Z,99349.58
2019-04-05T11:43:11.094Z,99344.91
2019-04-05T11:46:18.275Z,99337.75
2019-04-05T11:49:25.321Z,99326.64
2019-04-05T11:52:31.205Z,99340.55
2019-04-05T11:55:37.073Z,99330.81
2019-04-05T11:58:45.040Z,99325.02
2019-04-05T12:01:57.870Z,99317.80
2019-04-05T12:05:03.673Z,99307.50
2019-04-05T12:08:09.491Z,99305.00
2019-04-05T12:11:18.022Z,99296.66
2019-04-05T12:14:30.250Z,99296.54
2019-04-05T12:17:31.218Z,99288.25
2019-04-05T12:20:47.866Z,99278.45
2019-04-05T12:23:44.630Z,99271.59
2019-04-05T12:26:50.342Z,99260.11
2019-04-05T12:29:56.008Z,99254.95
2019-04-05T12:33:12.998Z,99254.95
2019-04-05T12:36:09.392Z,99242.13
2019-04-05T12:39:15.425Z,99236.80
2019-04-05T12:42:21.104Z,99226.20
2019-04-05T12:45:26.837Z,99226.20
2019-04-05T12:48:32.611Z,99218.68
2019-04-05T12:51:38.296Z,99212.45
2019-04-05T12:54:43.971Z,99210.72
2019-04-05T12:57:49.676Z,99194.30
2019-04-05T13:00:56.341Z,99198.52
2019-04-05T13:04:02.712Z,99193.51
2019-04-05T13:07:08.373Z,99179.09
2019-04-05T13:10:14.257Z,99185.71
2019-04-05T13:13:21.136Z,99172.06
2019-04-05T13:16:26.865Z,99171.95
2019-04-05T13:19:33.274Z,99170.93
2019-04-05T13:22:39.017Z,99161.31
2019-04-05T13:25:44.771Z,99151.66
2019-04-05T13:28:50.511Z,99149.95
2019-04-05T13:31:56.258Z,99149.95
2019-04-05T13:35:01.939Z,99139.19
2019-04-05T13:38:07.827Z,99129.09
2019-04-05T13:41:13.512Z,99127.58
2019-04-05T13:44:19.237Z,99124.77
2019-04-05T13:47:24.916Z,99112.33
2019-04-05T13:50:30.651Z,99110.80
2019-04-05T13:53:36.360Z,99112.92
2019-04-05T13:56:42.057Z,99106.89
2019-04-05T13:59:49.025Z,99105.16
2019-04-05T14:02:54.755Z,99099.95
2019-04-05T14:06:00.500Z,99091.46
2019-04-05T14:09:10.203Z,99093.13
2019-04-05T14:12:16.554Z,99081.73
2019-04-05T14:15:22.371Z,99079.37
2019-04-05T14:18:28.150Z,99074.40
2019-04-05T14:21:40.199Z,99073.18
2019-04-05T14:24:41.244Z,99070.03
2019-04-05T14:27:47.011Z,99063.86
2019-04-05T14:30:52.795Z,99064.86
2019-04-05T14:33:58.813Z,99057.98
2019-04-05T14:37:04.489Z,99055.84
2019-04-05T14:40:13.866Z,99055.70
2019-04-05T14:43:21.177Z,99055.88
2019-04-05T14:46:28.992Z,99049.91
2019-04-05T14:49:33.630Z,99048.47
2019-04-05T14:52:39.522Z,99043.78
2019-04-05T14:55:45.213Z,99040.27
2019-04-05T14:58:50.913Z,99039.18
2019-04-05T15:01:56.716Z,99039.88
2019-04-05T15:05:02.410Z,99037.23
2019-04-05T15:08:08.564Z,99037.77
2019-04-05T15:11:15.357Z,99044.47
2019-04-05T15:14:21.172Z,99037.16
2019-04-05T15:17:27.033Z,99039.39
2019-04-05T15:20:34.843Z,99036.88
2019-04-05T15:23:41.323Z,99032.61
2019-04-05T15:26:47.252Z,99029.66
2019-04-05T15:29:55.354Z,99029.16
2019-04-05T15:33:03.508Z,99029.55
2019-04-05T15:36:09.167Z,99026.42
2019-04-05T15:39:14.883Z,99025.19
2019-04-05T15:42:20.561Z,99025.09
2019-04-05T15:45:26.422Z,99022.46
2019-04-05T15:48:32.117Z,99026.73
2019-04-05T15:51:37.917Z,99023.78
2019-04-05T15:54:43.680Z,99024.60
2019-04-05T15:57:49.366Z,99022.68
2019-04-05T16:00:55.156Z,99019.13
2019-04-05T16:04:02.714Z,99014.45
2019-04-05T16:07:08.594Z,99013.45
2019-04-05T16:10:14.887Z,99017.59
2019-04-05T16:13:20.580Z,99019.73
2019-04-05T16:16:26.704Z,99019.73
2019-04-05T16:19:32.401Z,99016.38
2019-04-05T16:22:38.110Z,99021.45
2019-04-05T16:25:43.775Z,99022.64
2019-04-05T16:28:49.461Z,99023.45
2019-04-05T16:31:55.219Z,99021.14
2019-04-05T16:35:00.906Z,99016.27
2019-04-05T16:38:06.687Z,99020.78
2019-04-05T16:41:12.443Z,99017.11
2019-04-05T16:44:18.120Z,99018.64
2019-04-05T16:47:23.850Z,99010.75
2019-04-05T16:50:29.553Z,99008.94
2019-04-05T16:53:35.322Z,99003.52
2019-04-05T16:56:41.232Z,99002.67
2019-04-05T16:59:46.969Z,99007.00
2019-04-05T17:02:52.645Z,98996.30
2019-04-05T17:05:58.804Z,98998.67
2019-04-05T17:09:05.503Z,99001.25
2019-04-05T17:12:12.989Z,99002.44
2019-04-05T17:15:18.780Z,99007.78
2019-04-05T17:18:24.517Z,99007.46
2019-04-05T17:21:30.212Z,99002.23
2019-04-05T17:24:35.881Z,99004.76
2019-04-05T17:27:41.616Z,99005.54
2019-04-05T17:30:47.600Z,99008.42
2019-04-05T17:33:53.382Z,99013.08
2019-04-05T17:36:59.170Z,99013.55
2019-04-05T17:40:05.957Z,99015.45
2019-04-05T17:43:12.084Z,99021.36
2019-04-05T17:46:17.881Z,99024.13
2019-04-05T17:49:23.583Z,99025.90
2019-04-05T17:52:29.388Z,99026.20
2019-04-05T17:55:35.349Z,99021.72
2019-04-05T17:58:41.078Z,99028.03
2019-04-05T18:01:46.894Z,99029.56
2019-04-05T18:04:54.203Z,99029.12
2019-04-05T18:08:00.057Z,99032.54
2019-04-05T18:11:06.086Z,99031.31
2019-04-05T18:14:12.086Z,99033.13
2019-04-05T18:17:17.780Z,99032.48
2019-04-05T18:20:23.464Z,99031.31
2019-04-05T18:23:29.170Z,99041.30
2019-04-05T18:26:34.961Z,99030.06
2019-04-05T18:29:40.667Z,99036.62
2019-04-05T18:32:46.512Z,99031.66
2019-04-05T18:35:52.210Z,99035.70
2019-04-05T18:38:57.948Z,99037.89
2019-04-05T18:42:03.765Z,99040.58
2019-04-05T18:45:09.622Z,99042.94
2019-04-05T18:48:15.428Z,99047.22
2019-04-05T18:51:21.195Z,99054.36
2019-04-05T18:54:27.033Z,99055.60
2019-04-05T18:57:32.694Z,99067.88
2019-04-05T19:00:38.373Z,99071.87
2019-04-05T19:03:44.084Z,99061.41
2019-04-05T19:06:49.931Z,99067.81
2019-04-05T19:09:55.710Z,99073.25
2019-04-05T19:13:01.449Z,99082.84
2019-04-05T19:16:07.287Z,99094.78
2019-04-05T19:19:12.979Z,99090.91
2019-04-05T19:22:18.693Z,99095.41
2019-04-05T19:25:24.517Z,99094.73
2019-04-05T19:28:30.231Z,99095.05
2019-04-05T19:50:21.718Z,99126.01
2019-04-05T19:53:27.393Z,99136.48
2019-04-05T19:56:33.161Z,99148.77
2019-04-05T19:59:38.821Z,99150.09
2019-04-05T20:02:44.524Z,99150.78
2019-04-05T20:05:50.220Z,99157.01
2019-04-05T20:08:56.052Z,99158.00
2019-04-05T20:12:01.787Z,99163.21
2019-04-05T20:15:08.317Z,99163.37
2019-04-05T20:18:14.020Z,99170.26
2019-04-05T20:21:19.697Z,99172.47
2019-04-05T20:24:25.700Z,99185.27
2019-04-05T20:27:31.446Z,99181.73
2019-04-05T20:30:37.212Z,99192.02
2019-04-05T20:33:43.067Z,99195.56
2019-04-05T20:36:48.819Z,99207.25
2019-04-05T20:39:54.499Z,99208.13
2019-04-05T20:43:00.285Z,99201.16
2019-04-05T20:46:07.283Z,99194.53
2019-04-05T20:49:12.978Z,99201.45
2019-04-05T20:52:18.713Z,99208.48
2019-04-05T20:55:24.389Z,99218.83
2019-04-05T20:58:30.184Z,99210.66
2019-04-05T21:01:35.840Z,99220.16
2019-04-05T21:04:41.677Z,99218.97
2019-04-05T21:07:47.435Z,99224.98
2019-04-05T21:10:53.139Z,99216.80
2019-04-05T21:13:58.923Z,99227.30
2019-04-05T21:17:04.703Z,99228.45
2019-04-05T21:20:10.675Z,99227.14
2019-04-05T21:23:16.388Z,99241.56
2019-04-05T21:26:22.068Z,99241.16
2019-04-05T21:29:27.806Z,99250.86
2019-04-05T21:32:33.522Z,99245.58
2019-04-05T21:35:39.213Z,99254.20
2019-04-05T21:38:44.954Z,99258.70
2019-04-05T21:41:50.650Z,99260.65
2019-04-05T21:44:56.444Z,99257.88
2019-04-05T21:48:02.172Z,99261.73
2019-04-05T21:51:07.904Z,99257.25
2019-04-05T21:54:13.622Z,99255.39
2019-04-05T21:57:19.303Z,99248.27
2019-04-05T22:00:28.656Z,99248.55
2019-04-05T22:03:36.033Z,99244.06
2019-04-05T22:06:41.687Z,99250.38
2019-04-05T22:09:47.350Z,99258.99
2019-04-05T22:12:53.009Z,99264.58
2019-04-05T22:15:58.695Z,99264.34
2019-04-05T22:19:05.368Z,99263.70
2019-04-05T22:22:11.080Z,99264.84
2019-04-05T22:25:18.204Z,99275.93
2019-04-05T22:28:23.874Z,99279.30
2019-04-05T22:31:29.604Z,99272.31
2019-04-05T22:34:35.329Z,99271.73
2019-04-05T22:37:41.089Z,99280.90
2019-04-05T22:40:46.793Z,99279.70
2019-04-05T22:43:53.604Z,99275.34
2019-04-05T22:46:59.309Z,99277.63
2019-04-05T22:50:05.113Z,99283.50
2019-04-05T22:53:10.859Z,99286.45
2019-04-05T22:56:16.624Z,99282.21
2019-04-05T22:59:22.303Z,99287.17
2019-04-05T23:02:27.986Z,99279.69
2019-04-05T23:05:33.889Z,99279.28
2019-04-05T23:08:40.667Z,99282.50
2019-04-05T23:11:46.439Z,99285.05
2019-04-05T23:14:52.129Z,99282.46
2019-04-05T23:17:57.857Z,99277.86
2019-04-05T23:21:03.640Z,99272.65
2019-04-05T23:24:09.323Z,99275.84
2019-04-05T23:27:15.276Z,99279.70
2019-04-05T23:30:22.684Z,99278.84
2019-04-05T23:33:28.409Z,99277.63
2019-04-05T23:36:34.140Z,99281.61
2019-04-05T23:39:39.822Z,99277.16
2019-04-05T23:42:45.545Z,99274.90
2019-04-05T23:45:51.229Z,99274.02
2019-04-05T23:48:56.962Z,99277.58
2019-04-05T23:52:02.778Z,99280.83
2019-04-05T23:55:08.766Z,99284.17
2019-04-05T23:58:14.448Z,99286.91
